Time;durP1;ratioP1;P1;durP2;ratioP2;P2;SDS_P1;SDS_P2;PMS_P1;PMS_P2;Temp;Humidity;BMP_temperature;BMP_pressure;BME280_temperature;BME280_humidity;BME280_pressure;Samples;Min_cycle;Max_cycle;Signal;HPM_P1;HPM_P2
2022/06/27 00:00:57;;;;;;;13.25;5.47;;;;;;;18.90;82.65;101443.13;5056818;28;20057;-47
2022/06/27 00:03:45;;;;;;;10.38;5.25;;;;;;;18.89;82.54;101443.47;5052458;28;20130;-48
2022/06/27 00:06:32;;;;;;;9.30;5.28;;;;;;;18.91;82.41;101449.50;5040774;28;20049;-48
2022/06/27 00:09:20;;;;;;;10.20;5.13;;;;;;;18.91;82.42;101435.69;5044185;28;20064;-47
2022/06/27 00:12:09;;;;;;;8.75;5.10;;;;;;;18.90;82.13;101432.09;5053916;28;20041;-49
2022/06/27 00:14:57;;;;;;;9.23;5.18;;;;;;;18.88;81.93;101441.81;5040768;28;20053;-47
2022/06/27 00:17:45;;;;;;;11.75;5.72;;;;;;;18.85;82.22;101434.97;5048997;28;20052;-48
2022/06/27 00:20:33;;;;;;;12.50;5.63;;;;;;;18.83;82.28;101434.47;5046357;28;20042;-50
2022/06/27 00:23:20;;;;;;;10.00;4.90;;;;;;;18.77;82.93;101434.91;5037329;28;20522;-47
2022/06/27 00:26:08;;;;;;;9.25;4.82;;;;;;;18.72;83.25;101435.78;5053684;28;20049;-48
2022/06/27 00:28:56;;;;;;;9.07;4.90;;;;;;;18.69;83.66;101439.97;5046610;28;20052;-48
2022/06/27 00:31:43;;;;;;;10.73;4.90;;;;;;;18.71;83.64;101442.41;5030780;28;20493;-49
2022/06/27 00:34:31;;;;;;;7.82;4.43;;;;;;;18.74;83.65;101448.16;5024723;28;20459;-48
2022/06/27 00:37:19;;;;;;;9.05;4.95;;;;;;;18.79;83.57;101451.97;5056214;28;20052;-48
2022/06/27 00:40:07;;;;;;;9.45;4.45;;;;;;;18.84;83.26;101465.66;5033432;28;20044;-49
2022/06/27 00:42:55;;;;;;;9.25;5.20;;;;;;;18.84;83.50;101471.19;5038166;28;20037;-48
2022/06/27 00:45:43;;;;;;;8.88;5.05;;;;;;;18.82;83.75;101473.44;5053075;28;20506;-47
2022/06/27 00:48:31;;;;;;;9.82;5.50;;;;;;;18.76;84.51;101480.13;5055443;28;20076;-47
2022/06/27 00:51:18;;;;;;;9.15;5.32;;;;;;;18.71;85.37;101476.38;5055319;28;20501;-48
2022/06/27 00:54:06;;;;;;;8.77;5.18;;;;;;;18.65;85.94;101472.06;5025767;28;20412;-51
2022/06/27 00:56:34;;;;;;;10.05;5.43;;;;;;;18.62;86.10;101474.66;5053120;28;20064;-52
2022/06/27 00:59:22;;;;;;;13.63;5.85;;;;;;;18.61;85.95;101473.00;5055534;28;20052;-47
2022/06/27 01:02:10;;;;;;;11.45;6.50;;;;;;;18.58;86.14;101468.09;5030602;28;20061;-49
2022/06/27 01:04:57;;;;;;;10.13;5.80;;;;;;;18.57;86.02;101467.28;5054040;28;20115;-47
2022/06/27 01:07:41;;;;;;;13.95;6.05;;;;;;;18.56;85.99;101457.34;5046345;28;20056;-45
2022/06/27 01:10:29;;;;;;;10.13;6.13;;;;;;;18.57;85.58;101464.53;5043552;28;20508;-47
2022/06/27 01:13:17;;;;;;;12.32;6.80;;;;;;;18.56;85.45;101460.09;5054040;28;20056;-45
2022/06/27 01:16:05;;;;;;;10.48;6.22;;;;;;;18.56;85.66;101464.81;5050523;28;20049;-46
2022/06/27 01:18:53;;;;;;;10.00;5.97;;;;;;;18.57;85.41;101461.75;5055470;28;20118;-46
2022/06/27 01:21:46;;;;;;;11.90;5.50;;;;;;;18.59;85.23;101458.69;5055315;28;20056;-48
2022/06/27 01:24:33;;;;;;;11.15;5.72;;;;;;;18.64;84.94;101466.84;5050294;28;20053;-52
2022/06/27 01:27:24;;;;;;;9.55;5.38;;;;;;;18.68;84.51;101463.16;5043393;28;20462;-49
2022/06/27 01:30:13;;;;;;;10.82;6.07;;;;;;;18.70;84.20;101466.44;5026519;28;20041;-48
2022/06/27 01:33:01;;;;;;;10.70;5.22;;;;;;;18.71;83.85;101462.56;5051581;28;20040;-46
2022/06/27 01:36:41;;;;;;;9.63;5.68;;;;;;;18.70;83.48;101466.44;5031637;28;20132;-45
2022/06/27 01:38:56;;;;;;;12.90;5.88;;;;;;;18.62;83.66;101452.56;5041598;28;20396;-46
2022/06/27 01:41:53;;;;;;;10.57;6.22;;;;;;;18.54;84.46;101434.75;5046851;28;20056;-48
2022/06/27 01:44:42;;;;;;;10.13;5.43;;;;;;;18.48;84.98;101436.81;5051183;28;20063;-48
2022/06/27 01:47:33;;;;;;;9.15;5.80;;;;;;;18.48;85.08;101427.72;5039601;28;20442;-47
2022/06/27 01:50:25;;;;;;;11.63;6.60;;;;;;;18.49;84.73;101421.06;5053742;28;20048;-48
2022/06/27 01:53:13;;;;;;;10.18;6.18;;;;;;;18.46;84.83;101421.69;5053390;28;20053;-49
2022/06/27 01:56:02;;;;;;;10.10;5.78;;;;;;;18.44;84.88;101426.69;5034428;28;20045;-48
2022/06/27 01:58:57;;;;;;;11.60;6.60;;;;;;;18.44;85.24;101418.41;5050840;28;20049;-49
2022/06/27 02:01:45;;;;;;;9.60;6.05;;;;;;;18.44;84.64;101412.88;5034770;28;20048;-48
2022/06/27 02:04:33;;;;;;;11.25;6.28;;;;;;;18.40;84.15;101406.34;5051427;28;20408;-47
2022/06/27 02:07:21;;;;;;;11.93;6.38;;;;;;;18.37;84.91;101409.72;5039282;28;20522;-48
2022/06/27 02:10:09;;;;;;;8.05;5.43;;;;;;;18.39;84.82;101399.19;5048092;28;20037;-48
2022/06/27 02:12:57;;;;;;;9.82;5.93;;;;;;;18.41;84.67;101406.03;5053072;28;20060;-49
2022/06/27 02:16:10;;;;;;;10.32;5.50;;;;;;;18.44;84.50;101407.38;5052166;28;20068;-50
2022/06/27 02:18:58;;;;;;;10.93;6.18;;;;;;;18.48;84.78;101419.44;5041222;28;20091;-45
2022/06/27 02:21:46;;;;;;;10.40;6.43;;;;;;;18.52;84.54;101414.94;5037794;28;20037;-46
2022/06/27 02:24:34;;;;;;;11.52;7.13;;;;;;;18.50;84.33;101400.63;5036472;28;20053;-50
2022/06/27 02:27:22;;;;;;;12.45;6.85;;;;;;;18.44;84.29;101397.16;5053914;28;20049;-50
2022/06/27 02:30:10;;;;;;;10.65;6.75;;;;;;;18.39;84.96;101399.19;5039048;28;20045;-46
2022/06/27 02:32:58;;;;;;;11.65;7.00;;;;;;;18.35;85.37;101390.72;5052144;28;20051;-51
2022/06/27 02:35:46;;;;;;;11.52;6.90;;;;;;;18.32;85.17;101391.31;5040055;28;20407;-47
2022/06/27 02:38:34;;;;;;;12.95;7.18;;;;;;;18.26;85.84;101393.38;5023826;28;20049;-51
2022/06/27 02:41:23;;;;;;;12.25;7.60;;;;;;;18.23;86.28;101385.72;5039891;28;20057;-46
2022/06/27 02:44:12;;;;;;;9.75;6.57;;;;;;;18.22;86.51;101386.81;5032557;28;20045;-45
2022/06/27 02:47:00;;;;;;;10.10;5.95;;;;;;;18.26;86.76;101390.63;5057924;28;20056;-44
2022/06/27 02:49:49;;;;;;;13.32;7.30;;;;;;;18.31;86.59;101386.94;5052487;28;20055;-45
2022/06/27 02:52:41;;;;;;;13.30;7.53;;;;;;;18.28;86.48;101371.81;5050874;28;20053;-50
2022/06/27 02:55:40;;;;;;;11.02;6.93;;;;;;;18.28;86.66;101368.25;5030735;28;20132;-46
2022/06/27 02:58:39;;;;;;;16.63;7.43;;;;;;;18.28;86.67;101366.31;5045563;28;20415;-48
2022/06/27 03:01:27;;;;;;;12.32;7.10;;;;;;;18.25;86.55;101363.34;5050916;28;20492;-47
2022/06/27 03:04:15;;;;;;;11.10;6.70;;;;;;;18.19;87.00;101361.81;5027244;28;20045;-45
2022/06/27 03:07:03;;;;;;;11.90;7.15;;;;;;;18.16;87.53;101354.97;5047223;28;20037;-49
2022/06/27 03:09:51;;;;;;;11.05;6.90;;;;;;;18.14;87.81;101362.72;5034850;28;20049;-52
2022/06/27 03:12:40;;;;;;;12.77;6.55;;;;;;;18.14;88.19;101359.97;5071821;28;20043;-50
2022/06/27 03:15:28;;;;;;;11.77;7.30;;;;;;;18.16;88.14;101352.22;5041484;28;20396;-53
2022/06/27 03:18:19;;;;;;;10.30;7.00;;;;;;;18.19;88.23;101356.28;5032780;28;20048;-50
2022/06/27 03:21:27;;;;;;;11.82;6.95;;;;;;;18.23;88.12;101349.88;5048597;28;20084;-52
2022/06/27 03:24:18;;;;;;;13.27;6.90;;;;;;;18.21;88.39;101343.84;5070726;28;20114;-48
2022/06/27 03:26:46;;;;;;;11.07;6.05;;;;;;;18.18;88.44;101346.38;5060251;28;20495;-47
2022/06/27 03:29:34;;;;;;;11.77;6.63;;;;;;;18.17;88.69;101345.56;5065856;28;20045;-44
2022/06/27 03:32:22;;;;;;;12.02;6.70;;;;;;;18.16;88.97;101335.66;5057818;28;20419;-51
2022/06/27 03:35:19;;;;;;;8.48;6.25;;;;;;;18.16;89.04;101341.19;5064178;28;20045;-48
2022/06/27 03:38:07;;;;;;;11.00;6.93;;;;;;;18.17;88.99;101342.81;5062287;28;20086;-46
2022/06/27 03:40:57;;;;;;;11.73;7.13;;;;;;;18.16;89.08;101343.09;5063902;28;20053;-47
2022/06/27 03:43:44;;;;;;;12.13;6.88;;;;;;;18.16;89.08;101351.38;5051037;28;20488;-46
2022/06/27 03:46:33;;;;;;;9.48;6.72;;;;;;;18.15;89.02;101347.81;5037364;28;20399;-48
2022/06/27 03:52:35;;;;;;;13.77;7.38;;;;;;;18.13;89.18;101336.25;5051948;28;20044;-49
2022/06/27 03:55:24;;;;;;;11.93;7.15;;;;;;;18.10;88.92;101345.97;5049939;28;20085;-49
2022/06/27 03:58:12;;;;;;;11.45;7.47;;;;;;;18.07;89.11;101345.78;5051637;28;20049;-47
2022/06/27 04:01:01;;;;;;;10.48;6.40;;;;;;;18.05;89.37;101350.78;5050571;28;20052;-49
2022/06/27 04:03:47;;;;;;;15.63;7.30;;;;;;;18.07;89.18;101349.34;5049948;28;20049;-49
2022/06/27 04:06:39;;;;;;;11.13;6.43;;;;;;;18.07;89.07;101343.81;5048079;28;20084;-48
2022/06/27 04:09:31;;;;;;;11.85;6.50;;;;;;;18.09;89.08;101354.56;5035411;28;20131;-49
2022/06/27 04:12:18;;;;;;;10.18;6.97;;;;;;;18.11;88.95;101366.06;5037334;28;20037;-47
2022/06/27 04:15:26;;;;;;;12.52;6.78;;;;;;;18.14;88.69;101365.50;5050898;28;20500;-50
2022/06/27 04:18:33;;;;;;;12.82;6.88;;;;;;;18.15;88.77;101366.28;5042785;28;20152;-47
2022/06/27 04:21:39;;;;;;;12.30;7.15;;;;;;;18.15;88.75;101356.06;5038537;28;20053;-49
2022/06/27 04:24:41;;;;;;;11.02;6.53;;;;;;;18.16;88.77;101368.75;5047674;28;20045;-47
2022/06/27 04:27:31;;;;;;;13.75;7.43;;;;;;;18.17;88.68;101370.38;5051232;28;20124;-50
2022/06/27 04:30:18;;;;;;;10.60;6.97;;;;;;;18.18;88.48;101366.50;5031751;28;20041;-48
2022/06/27 04:33:07;;;;;;;11.65;6.68;;;;;;;18.19;88.53;101356.28;5050045;28;20385;-48
2022/06/27 04:35:46;;;;;;;18.35;7.95;;;;;;;18.17;88.28;101351.06;5021636;28;20051;-52
2022/06/27 04:38:34;;;;;;;14.63;7.80;;;;;;;18.13;88.85;101341.78;5048837;28;20084;-45
2022/06/27 04:41:34;;;;;;;15.52;7.30;;;;;;;18.06;90.05;101328.41;5048257;28;20049;-52
2022/06/27 04:44:22;;;;;;;15.40;7.53;;;;;;;18.04;90.24;101325.13;5054392;28;20495;-48
2022/06/27 04:47:12;;;;;;;12.60;7.95;;;;;;;18.03;90.26;101319.91;5054380;28;20047;-49
2022/06/27 04:50:22;;;;;;;12.00;7.38;;;;;;;18.03;90.25;101314.41;5046921;28;20061;-46
2022/06/27 04:53:11;;;;;;;13.15;7.63;;;;;;;18.01;90.23;101308.38;5028458;28;20492;-46
2022/06/27 04:55:59;;;;;;;12.98;6.53;;;;;;;17.97;90.53;101304.63;5058365;28;20125;-47
2022/06/27 04:58:47;;;;;;;9.68;6.35;;;;;;;17.97;90.32;101301.88;5053623;28;20080;-46
2022/06/27 05:01:38;;;;;;;9.55;5.88;;;;;;;18.02;90.37;101329.31;5043777;28;20137;-46
2022/06/27 05:04:32;;;;;;;11.80;6.72;;;;;;;18.09;89.99;101327.78;5039687;28;20045;-47
2022/06/27 05:07:22;;;;;;;12.15;7.15;;;;;;;18.12;89.51;101320.84;5040644;28;20185;-48
2022/06/27 05:10:10;;;;;;;13.68;7.65;;;;;;;18.10;88.99;101320.34;5035049;28;20041;-50
2022/06/27 05:12:59;;;;;;;10.85;6.93;;;;;;;18.07;88.66;101309.91;5052327;28;20045;-53
2022/06/27 05:15:47;;;;;;;12.13;6.07;;;;;;;18.05;88.45;101309.41;5053777;28;20040;-49
2022/06/27 05:18:35;;;;;;;10.63;6.80;;;;;;;18.05;87.94;101307.47;5038695;28;20048;-49
2022/06/27 05:21:43;;;;;;;12.45;7.03;;;;;;;18.02;87.91;101291.53;5051010;28;20048;-51
2022/06/27 05:24:32;;;;;;;11.85;6.10;;;;;;;18.04;88.38;101288.47;5045233;28;20522;-51
2022/06/27 05:27:19;;;;;;;9.90;6.22;;;;;;;18.08;88.18;101303.28;5040439;28;20116;-52
2022/06/27 05:30:08;;;;;;;12.00;6.72;;;;;;;18.13;88.22;101313.38;5037930;28;20040;-48
2022/06/27 05:32:58;;;;;;;11.05;7.60;;;;;;;18.15;87.99;101317.47;5047839;28;20084;-47
2022/06/27 05:35:45;;;;;;;13.15;6.85;;;;;;;18.16;87.72;101310.84;5045590;28;20048;-51
2022/06/27 05:38:33;;;;;;;12.40;6.78;;;;;;;18.17;87.82;101304.19;5061405;28;20041;-53
2022/06/27 05:41:22;;;;;;;9.05;6.10;;;;;;;18.18;87.49;101294.78;5033978;28;20151;-51
2022/06/27 05:44:14;;;;;;;9.43;6.20;;;;;;;18.20;87.45;101324.81;5050817;28;20511;-50
2022/06/27 05:47:02;;;;;;;11.60;6.47;;;;;;;18.24;87.33;101372.75;5067871;28;20124;-51
2022/06/27 05:50:06;;;;;;;11.88;6.35;;;;;;;18.27;87.21;101385.91;5048086;28;20041;-48
2022/06/27 05:52:56;;;;;;;11.10;5.90;;;;;;;18.30;87.08;101402.69;5060477;28;20415;-49
2022/06/27 05:55:49;;;;;;;10.90;6.25;;;;;;;18.33;86.99;101408.69;5040248;28;20127;-48
2022/06/27 05:58:38;;;;;;;12.15;6.53;;;;;;;18.34;87.00;101402.88;5051198;28;20075;-52
2022/06/27 06:01:27;;;;;;;11.50;7.18;;;;;;;18.36;87.58;101428.22;5053500;28;20056;-47
2022/06/27 06:04:15;;;;;;;13.00;8.85;;;;;;;18.34;89.34;101435.16;5059759;28;20045;-51
2022/06/27 06:07:04;;;;;;;13.80;9.00;;;;;;;18.29;89.79;101431.38;5051193;28;20081;-55
2022/06/27 06:09:52;;;;;;;12.15;8.82;;;;;;;18.23;90.63;101424.34;4345225;28;10001167;-56
2022/06/27 06:12:40;;;;;;;15.73;9.30;;;;;;;18.16;90.97;101432.19;5043159;28;20132;-50
2022/06/27 06:15:31;;;;;;;14.60;10.07;;;;;;;18.14;91.17;101437.19;5054133;28;20049;-54
2022/06/27 06:18:21;;;;;;;15.73;9.07;;;;;;;18.09;91.29;101440.06;5054161;28;20053;-52
2022/06/27 06:21:09;;;;;;;14.23;7.97;;;;;;;18.03;91.48;101438.50;5043322;28;20140;-54
2022/06/27 06:23:57;;;;;;;16.33;8.48;;;;;;;18.00;91.32;101434.41;5035621;28;20785;-58
2022/06/27 06:26:45;;;;;;;12.65;7.55;;;;;;;18.02;91.46;101429.41;5040584;28;20041;-55
2022/06/27 06:29:35;;;;;;;13.63;9.25;;;;;;;18.08;91.26;101421.84;5054344;28;20049;-56
2022/06/27 06:32:25;;;;;;;12.82;7.57;;;;;;;18.08;91.15;101421.84;5035765;28;20122;-55
2022/06/27 06:35:15;;;;;;;12.55;7.95;;;;;;;18.14;90.47;101433.63;5055056;28;20045;-53
2022/06/27 06:38:03;;;;;;;11.25;7.88;;;;;;;18.18;90.39;101440.97;5053841;28;20048;-50
2022/06/27 06:40:51;;;;;;;15.73;7.47;;;;;;;18.21;89.85;101432.09;5056822;28;20059;-51
2022/06/27 06:43:39;;;;;;;13.30;7.32;;;;;;;18.22;89.02;101430.97;5040938;28;20049;-50
2022/06/27 06:46:44;;;;;;;15.13;7.15;;;;;;;18.23;88.90;101427.09;5037163;28;20795;-54
2022/06/27 06:49:40;;;;;;;12.53;7.63;;;;;;;18.25;88.73;101412.97;5042460;28;20396;-53
2022/06/27 06:52:30;;;;;;;16.80;8.95;;;;;;;18.25;88.70;101405.50;5033198;28;20049;-51
2022/06/27 06:55:22;;;;;;;14.73;9.13;;;;;;;18.22;88.99;101395.09;5043280;28;20132;-46
2022/06/27 06:58:10;;;;;;;13.27;8.60;;;;;;;18.17;89.50;101384.16;5040716;28;20048;-49
2022/06/27 07:00:58;;;;;;;17.08;9.43;;;;;;;18.18;89.97;101388.56;5047268;28;20483;-48
2022/06/27 07:03:47;;;;;;;13.70;9.30;;;;;;;18.16;89.83;101379.78;5036542;28;20108;-50
2022/06/27 07:06:36;;;;;;;13.85;9.43;;;;;;;18.14;89.86;101376.53;5040558;28;20427;-48
2022/06/27 07:09:24;;;;;;;16.58;8.80;;;;;;;18.10;89.71;101364.47;5048432;28;20045;-46
2022/06/27 07:12:11;;;;;;;18.20;9.13;;;;;;;18.11;89.70;101363.31;5045611;28;20506;-48
2022/06/27 07:15:00;;;;;;;14.55;8.88;;;;;;;18.16;89.77;101379.78;5039171;28;20495;-50
2022/06/27 07:17:49;;;;;;;53.88;17.27;;;;;;;18.22;89.73;101383.25;5047463;28;20745;-51
2022/06/27 07:20:37;;;;;;;21.17;9.75;;;;;;;18.28;89.64;101371.00;5049425;28;20425;-48
2022/06/27 07:23:25;;;;;;;23.02;11.13;;;;;;;18.32;89.76;101355.47;5046242;28;20055;-49
2022/06/27 07:26:13;;;;;;;42.83;14.75;;;;;;;18.36;89.77;101347.41;5052984;28;20415;-49
2022/06/27 07:29:04;;;;;;;23.80;11.10;;;;;;;18.42;89.76;101393.06;5027039;28;20132;-50
2022/06/27 07:31:52;;;;;;;16.65;9.77;;;;;;;18.44;88.83;101412.88;5045703;28;20053;-52
2022/06/27 07:34:40;;;;;;;17.88;9.98;;;;;;;18.43;88.82;101405.75;5041393;28;20045;-54
2022/06/27 07:37:28;;;;;;;17.13;9.70;;;;;;;18.41;88.76;101410.75;5049906;28;20040;-49
2022/06/27 07:39:57;;;;;;;15.52;8.85;;;;;;;18.45;88.88;101425.59;5042126;28;20136;-50
2022/06/27 07:42:45;;;;;;;16.25;10.10;;;;;;;18.52;88.64;101414.94;5037608;28;20052;-48
2022/06/27 07:45:23;;;;;;;18.05;11.38;;;;;;;18.56;88.67;101404.91;5036195;28;20136;-49
2022/06/27 07:48:12;;;;;;;16.08;11.55;;;;;;;18.58;89.13;101393.56;5052766;28;20111;-48
2022/06/27 07:51:00;;;;;;;15.65;11.23;;;;;;;18.57;89.29;101408.47;5052598;28;20094;-53
2022/06/27 07:53:48;;;;;;;22.48;11.90;;;;;;;18.59;89.41;101423.63;5057307;28;20045;-48
2022/06/27 07:56:37;;;;;;;15.40;11.25;;;;;;;18.58;89.69;101416.47;5057232;28;20110;-50
2022/06/27 07:59:44;;;;;;;16.73;10.90;;;;;;;18.58;89.88;101430.25;5060643;28;20548;-48
2022/06/27 08:02:32;;;;;;;19.73;11.55;;;;;;;18.61;90.68;101446.19;5065234;28;20059;-47
2022/06/27 08:05:20;;;;;;;16.30;10.98;;;;;;;18.61;91.33;101451.72;5072048;28;20059;-48
2022/06/27 08:08:04;;;;;;;15.63;10.95;;;;;;;18.63;91.12;101452.25;5067523;28;20063;-48
2022/06/27 08:10:52;;;;;;;17.90;9.30;;;;;;;18.67;90.77;101461.53;5072272;28;20052;-48
2022/06/27 08:13:40;;;;;;;16.13;9.23;;;;;;;18.72;89.58;101464.19;5072311;28;20044;-45
2022/06/27 08:16:28;;;;;;;18.77;10.52;;;;;;;18.74;89.98;101458.38;5060777;28;20037;-49
2022/06/27 08:19:16;;;;;;;15.10;9.65;;;;;;;18.77;89.68;101476.31;5073146;28;20130;-50
2022/06/27 08:22:04;;;;;;;16.85;10.88;;;;;;;18.80;89.56;101486.72;5069861;28;20411;-48
2022/06/27 08:24:52;;;;;;;19.60;13.35;;;;;;;18.82;88.82;101473.44;5062598;28;20049;-50
2022/06/27 08:27:41;;;;;;;19.30;12.75;;;;;;;18.81;88.00;101460.72;5076401;28;20036;-50
2022/06/27 08:30:29;;;;;;;15.80;11.02;;;;;;;18.80;87.84;101459.94;5076525;28;20047;-46
2022/06/27 08:33:18;;;;;;;15.35;10.43;;;;;;;18.82;88.26;101463.19;5059447;28;20044;-46
2022/06/27 08:36:05;;;;;;;18.02;12.23;;;;;;;18.86;88.47;101471.69;5072733;28;20040;-49
2022/06/27 08:38:53;;;;;;;16.65;11.18;;;;;;;18.87;88.05;101476.09;5056648;28;20044;-46
2022/06/27 08:41:41;;;;;;;16.98;11.77;;;;;;;18.89;87.76;101482.94;5049433;28;20045;-46
2022/06/27 08:44:30;;;;;;;12.68;8.95;;;;;;;18.89;86.00;101504.22;5064874;28;20084;-48
2022/06/27 08:47:19;;;;;;;15.25;9.27;;;;;;;18.88;85.09;101505.31;5040948;28;20037;-48
2022/06/27 08:49:52;;;;;;;14.80;9.30;;;;;;;18.88;84.96;101499.78;5055765;28;20037;-53
2022/06/27 08:52:40;;;;;;;13.48;9.63;;;;;;;18.89;85.61;101495.94;5056034;28;20056;-49
2022/06/27 08:55:31;;;;;;;16.52;10.30;;;;;;;18.88;85.50;101492.34;5063846;28;20048;-48
2022/06/27 08:58:19;;;;;;;17.58;10.90;;;;;;;18.89;85.60;101487.66;5075219;28;20060;-48
2022/06/27 09:01:07;;;;;;;17.58;10.80;;;;;;;18.88;85.05;101489.59;5073183;28;20456;-49
2022/06/27 09:04:00;;;;;;;16.90;10.55;;;;;;;18.89;85.15;101493.16;5060486;28;20075;-46
2022/06/27 09:06:48;;;;;;;17.27;10.60;;;;;;;18.91;84.30;101496.44;5070305;28;20048;-47
2022/06/27 09:09:36;;;;;;;15.52;8.60;;;;;;;18.94;83.99;101501.34;5074366;28;20040;-49
2022/06/27 09:12:27;;;;;;;12.27;8.07;;;;;;;18.94;81.52;101504.91;5075158;28;20052;-48
2022/06/27 09:15:15;;;;;;;15.57;8.25;;;;;;;18.97;80.62;101519.25;5055109;28;20041;-50
2022/06/27 09:18:06;;;;;;;13.57;8.32;;;;;;;19.00;81.35;101505.66;5038627;28;20045;-47
2022/06/27 09:20:59;;;;;;;10.85;7.28;;;;;;;19.06;81.96;101507.16;5075326;28;20398;-50
2022/06/27 09:24:01;;;;;;;16.63;10.23;;;;;;;19.10;82.10;101497.13;5075389;28;20507;-51
2022/06/27 09:26:49;;;;;;;12.15;6.72;;;;;;;19.16;82.14;101484.84;5049667;28;20055;-46
2022/06/27 09:29:37;;;;;;;15.93;8.95;;;;;;;19.16;80.77;101479.31;5074622;28;20102;-48
2022/06/27 09:32:28;;;;;;;11.25;6.22;;;;;;;19.20;80.96;101485.03;5075297;28;20049;-50
2022/06/27 09:35:31;;;;;;;11.98;7.18;;;;;;;19.26;81.26;101502.31;5058685;28;20048;-52
2022/06/27 09:38:21;;;;;;;12.65;7.85;;;;;;;19.31;81.85;101507.72;5052885;28;20458;-47
2022/06/27 09:41:12;;;;;;;11.70;7.95;;;;;;;19.36;82.36;101518.66;5054734;28;20514;-49
2022/06/27 09:44:10;;;;;;;17.73;11.25;;;;;;;19.37;82.69;101512.03;5040436;28;20053;-50
2022/06/27 09:47:04;;;;;;;17.05;11.80;;;;;;;19.39;82.36;101508.97;5054510;28;20071;-48
2022/06/27 09:49:56;;;;;;;18.27;10.70;;;;;;;19.40;82.57;101510.59;5055188;28;20053;-50
2022/06/27 09:52:26;;;;;;;14.07;10.07;;;;;;;19.41;82.45;101504.75;5057584;28;20094;-50
2022/06/27 09:55:14;;;;;;;16.95;11.02;;;;;;;19.42;82.79;101489.78;5068771;28;20056;-49
2022/06/27 09:58:03;;;;;;;19.10;10.55;;;;;;;19.43;82.27;101483.13;5058656;28;20499;-51
2022/06/27 10:00:51;;;;;;;14.07;10.35;;;;;;;19.46;81.33;101485.28;5045747;28;20051;-51
2022/06/27 10:03:41;;;;;;;17.25;10.88;;;;;;;19.48;79.96;101496.00;5059679;28;20102;-49
2022/06/27 10:06:29;;;;;;;17.00;11.27;;;;;;;19.48;80.38;101488.56;5041639;28;20069;-47
2022/06/27 10:08:58;;;;;;;20.23;11.73;;;;;;;19.47;80.94;101489.66;5069936;28;20414;-49
2022/06/27 10:11:46;;;;;;;15.48;10.30;;;;;;;19.46;80.45;101499.09;5070897;28;20562;-47
2022/06/27 10:14:34;;;;;;;17.48;9.82;;;;;;;19.44;78.85;101490.31;5054128;28;20080;-48
2022/06/27 10:17:24;;;;;;;15.30;9.85;;;;;;;19.41;78.74;101477.13;5041906;28;20048;-50
2022/06/27 10:20:12;;;;;;;15.88;10.27;;;;;;;19.43;78.61;101477.59;5059343;28;20411;-49
2022/06/27 10:23:09;;;;;;;17.05;10.45;;;;;;;19.46;78.43;101474.22;5074074;28;20052;-51
2022/06/27 10:25:57;;;;;;;13.45;8.45;;;;;;;19.55;77.07;101469.59;5047121;28;20040;-48
2022/06/27 10:28:45;;;;;;;14.55;8.60;;;;;;;19.61;75.07;101473.03;5059371;28;20127;-48
2022/06/27 10:31:45;;;;;;;14.63;9.13;;;;;;;19.67;75.08;101468.19;5073698;28;20049;-48
2022/06/27 10:34:43;;;;;;;21.58;11.60;;;;;;;19.73;76.23;101464.22;5050510;28;21718;-49
2022/06/27 10:37:35;;;;;;;19.38;10.65;;;;;;;19.78;75.91;101464.09;5054109;28;20507;-49
2022/06/27 10:40:23;;;;;;;17.40;9.95;;;;;;;19.78;74.97;101455.78;5073440;28;20049;-46
2022/06/27 10:43:41;;;;;;;16.83;9.95;;;;;;;19.78;74.93;101456.59;5047708;28;20044;-54
2022/06/27 10:46:29;;;;;;;18.20;11.13;;;;;;;19.79;75.20;101465.72;5053788;28;20468;-53
2022/06/27 10:49:18;;;;;;;20.30;11.27;;;;;;;19.76;75.59;101464.41;5062954;28;20071;-51
2022/06/27 10:52:23;;;;;;;12.35;9.30;;;;;;;19.76;75.61;101467.16;5048471;28;20048;-51
2022/06/27 10:55:02;;;;;;;15.23;9.18;;;;;;;19.79;75.66;101469.31;5037349;28;20045;-51
2022/06/27 10:57:50;;;;;;;14.40;9.70;;;;;;;19.86;75.72;101466.09;5066156;28;20037;-51
2022/06/27 11:00:42;;;;;;;14.82;9.73;;;;;;;19.90;75.85;101464.34;5071717;28;20051;-53
2022/06/27 11:03:32;;;;;;;18.67;10.50;;;;;;;19.93;75.38;101469.22;5040179;28;20131;-49
2022/06/27 11:06:19;;;;;;;13.77;9.20;;;;;;;19.94;74.51;101473.66;5050014;28;20068;-53
2022/06/27 11:09:07;;;;;;;15.65;8.30;;;;;;;19.96;74.34;101479.69;5053814;28;20063;-53
2022/06/27 11:11:58;;;;;;;14.52;8.32;;;;;;;19.94;72.84;101481.94;5037446;28;20048;-55
2022/06/27 11:14:50;;;;;;;15.77;7.53;;;;;;;19.92;72.79;101492.50;5036835;28;20049;-52
2022/06/27 11:17:45;;;;;;;15.32;7.78;;;;;;;19.91;72.44;101481.75;5052258;28;20518;-54
2022/06/27 11:20:33;;;;;;;13.80;7.68;;;;;;;19.90;71.75;101486.47;5053295;28;20099;-50
2022/06/27 11:23:17;;;;;;;13.40;8.43;;;;;;;19.92;70.95;101488.91;5028987;28;20453;-54
2022/06/27 11:26:06;;;;;;;14.55;7.38;;;;;;;19.92;71.79;101481.44;5037974;28;20396;-48
2022/06/27 11:32:05;;;;;;;15.15;8.80;;;;;;;19.96;72.21;101473.31;5052200;28;20047;-50
2022/06/27 11:34:58;;;;;;;18.85;8.60;;;;;;;19.99;71.59;101483.75;5048610;28;20478;-51
2022/06/27 11:37:45;;;;;;;13.75;8.10;;;;;;;20.00;70.42;101480.66;5041427;28;20048;-50
2022/06/27 11:40:33;;;;;;;13.80;8.38;;;;;;;20.01;69.94;101481.47;5052539;28;20033;-51
2022/06/27 11:43:20;;;;;;;12.45;7.38;;;;;;;19.97;69.76;101484.06;5048579;28;20056;-50
2022/06/27 11:46:08;;;;;;;14.18;7.45;;;;;;;19.98;69.97;101469.09;5038559;28;20045;-51
2022/06/27 11:49:01;;;;;;;12.07;6.00;;;;;;;19.98;69.87;101488.44;5056264;28;20469;-52
2022/06/27 11:51:50;;;;;;;14.20;7.07;;;;;;;19.99;69.81;101500.34;5058924;28;20060;-51
2022/06/27 11:54:48;;;;;;;10.93;6.35;;;;;;;20.02;69.82;101508.03;5048577;28;20496;-52
2022/06/27 11:57:47;;;;;;;11.73;5.78;;;;;;;20.05;69.59;101501.03;5055227;28;20049;-50
2022/06/27 12:00:35;;;;;;;10.80;5.88;;;;;;;20.09;70.23;101491.78;5076252;28;20052;-51
2022/06/27 12:03:22;;;;;;;11.93;5.05;;;;;;;20.06;68.16;101489.66;5039511;28;20056;-52
2022/06/27 12:06:14;;;;;;;13.32;5.80;;;;;;;20.05;68.31;101471.41;5039188;28;20040;-51
2022/06/27 12:09:02;;;;;;;9.13;3.80;;;;;;;20.04;66.80;101471.75;5061851;28;20048;-49
2022/06/27 12:11:50;;;;;;;11.00;4.40;;;;;;;20.05;66.40;101465.06;5060557;28;20052;-51
2022/06/27 12:14:49;;;;;;;10.55;4.78;;;;;;;20.07;67.62;101455.31;5049747;28;20044;-51
2022/06/27 12:17:40;;;;;;;7.85;4.65;;;;;;;20.09;67.72;101477.97;5061399;28;20384;-48
2022/06/27 12:20:29;;;;;;;9.55;4.95;;;;;;;20.14;67.93;101479.78;5076114;28;20044;-47
2022/06/27 12:23:17;;;;;;;13.05;6.05;;;;;;;20.19;68.31;101480.44;5055930;28;20495;-50
2022/06/27 12:26:08;;;;;;;12.40;5.72;;;;;;;20.26;69.04;101480.00;5045865;28;20056;-48
2022/06/27 12:28:56;;;;;;;10.95;5.40;;;;;;;20.28;68.15;101480.50;5054875;28;20045;-47
2022/06/27 12:31:44;;;;;;;13.30;6.00;;;;;;;20.29;69.34;101484.09;5050216;28;20045;-48
2022/06/27 12:34:32;;;;;;;13.88;6.05;;;;;;;20.31;70.41;101485.41;5037029;28;20134;-46
2022/06/27 12:37:20;;;;;;;13.73;6.72;;;;;;;20.30;70.06;101489.31;5042026;28;20056;-45
2022/06/27 12:40:10;;;;;;;11.10;6.05;;;;;;;20.31;71.42;101492.88;5055744;28;20381;-47
2022/06/27 12:42:58;;;;;;;9.32;5.03;;;;;;;20.26;67.99;101482.78;5053055;28;20048;-49
2022/06/27 12:45:51;;;;;;;8.77;4.65;;;;;;;20.27;67.14;101480.81;5047373;28;20046;-48
2022/06/27 12:48:40;;;;;;;9.57;4.78;;;;;;;20.29;67.67;101479.34;5060875;28;20051;-48
2022/06/27 12:51:29;;;;;;;7.78;4.53;;;;;;;20.28;66.89;101480.50;5075870;28;20048;-51
2022/06/27 12:54:17;;;;;;;15.15;5.70;;;;;;;20.09;74.16;101519.47;5057087;28;20543;-49
2022/06/27 12:57:05;;;;;;;12.27;5.60;;;;;;;19.56;79.23;101509.91;5055937;28;20044;-48
2022/06/27 12:59:53;;;;;;;12.82;5.38;;;;;;;19.42;81.71;101525.72;5075622;28;20037;-47
2022/06/27 13:02:40;;;;;;;13.45;5.22;;;;;;;19.35;82.36;101528.91;5073454;28;20049;-47
2022/06/27 13:05:31;;;;;;;10.30;5.25;;;;;;;19.14;83.29;101533.22;5061618;28;20049;-48